Time;durP1;ratioP1;P1;durP2;ratioP2;P2;SDS_P1;SDS_P2;PMS_P1;PMS_P2;Temp;Humidity;BMP_temperature;BMP_pressure;BME280_temperature;BME280_humidity;BME280_pressure;Samples;Min_cycle;Max_cycle;Signal;HPM_P1;HPM_P2
2023/07/18 00:01:39;;;;;;;4.70;0.25;;;15.40;99.90;;;;;;5073532;28;20037;-76
2023/07/18 00:04:05;;;;;;;7.32;0.28;;;15.40;99.90;;;;;;5073498;28;20074;-77
2023/07/18 00:06:32;;;;;;;0.52;0.20;;;15.40;99.90;;;;;;5073870;28;20024;-76
2023/07/18 00:08:57;;;;;;;4.82;0.32;;;15.40;99.90;;;;;;5055785;28;20016;-76
2023/07/18 00:11:23;;;;;;;3.10;0.32;;;15.30;99.90;;;;;;5073392;28;20361;-77
2023/07/18 00:13:49;;;;;;;6.47;0.30;;;15.30;99.90;;;;;;5073287;28;20096;-77
2023/07/18 00:16:18;;;;;;;2.38;0.10;;;15.30;99.90;;;;;;5073428;28;20021;-77
2023/07/18 00:18:43;;;;;;;9.90;0.40;;;15.40;99.90;;;;;;5073242;28;20028;-77
2023/07/18 00:21:09;;;;;;;2.28;0.00;;;15.30;99.90;;;;;;5055214;28;20388;-77
2023/07/18 00:23:35;;;;;;;4.60;0.30;;;15.30;99.90;;;;;;5055385;28;20029;-77
2023/07/18 00:26:01;;;;;;;2.75;0.40;;;15.30;99.90;;;;;;5073232;28;20039;-77
2023/07/18 00:28:26;;;;;;;1.17;0.00;;;15.30;99.90;;;;;;5073715;28;20029;-77
2023/07/18 00:30:52;;;;;;;2.97;0.00;;;15.20;99.90;;;;;;5055280;28;20020;-75
2023/07/18 00:33:17;;;;;;;1.55;0.10;;;15.20;99.90;;;;;;5055106;28;20020;-76
2023/07/18 00:35:43;;;;;;;3.00;0.00;;;15.20;99.90;;;;;;5073037;28;20492;-76
2023/07/18 00:38:11;;;;;;;3.28;0.10;;;15.60;99.90;;;;;;5073355;28;20023;-77
2023/07/18 00:40:40;;;;;;;6.15;0.00;;;15.00;99.90;;;;;;5076037;28;20033;-77
2023/07/18 00:43:13;;;;;;;8.65;0.20;;;14.90;99.90;;;;;;5077191;28;20082;-77
2023/07/18 00:45:39;;;;;;;4.68;0.70;;;14.90;99.90;;;;;;5077306;28;20074;-77
2023/07/18 00:48:05;;;;;;;4.75;0.20;;;14.80;99.90;;;;;;5077020;28;20032;-75
2023/07/18 00:50:31;;;;;;;5.20;0.55;;;14.80;99.90;;;;;;5077178;28;20028;-77
2023/07/18 00:52:57;;;;;;;2.22;0.45;;;14.70;99.90;;;;;;5076978;28;20024;-77
2023/07/18 00:55:23;;;;;;;2.97;0.20;;;14.70;99.90;;;;;;5077141;28;20070;-77
2023/07/18 00:57:49;;;;;;;4.25;0.45;;;14.60;99.90;;;;;;5059162;28;20111;-77
2023/07/18 01:00:16;;;;;;;1.85;0.08;;;14.60;99.90;;;;;;5059178;28;20480;-76
2023/07/18 01:02:44;;;;;;;3.13;0.40;;;14.60;99.90;;;;;;5077226;28;20021;-77
2023/07/18 01:05:11;;;;;;;2.00;0.10;;;14.50;99.90;;;;;;5059275;28;20051;-77
2023/07/18 01:07:40;;;;;;;2.28;0.00;;;14.50;99.90;;;;;;5076859;28;20021;-77
2023/07/18 01:10:23;;;;;;;4.43;0.00;;;15.00;99.90;;;;;;5076876;28;20017;-77
2023/07/18 01:12:52;;;;;;;2.45;0.00;;;14.40;99.90;;;;;;5077253;28;20017;-77
2023/07/18 01:15:20;;;;;;;1.88;0.15;;;14.40;99.90;;;;;;5058648;28;20050;-76
2023/07/18 01:17:46;;;;;;;4.05;0.10;;;14.30;99.90;;;;;;5076539;28;20032;-76
2023/07/18 01:20:21;;;;;;;5.38;0.00;;;14.30;99.90;;;;;;5076422;28;20029;-77
2023/07/18 01:22:50;;;;;;;2.63;0.10;;;14.30;99.90;;;;;;5058345;28;20020;-76
2023/07/18 01:25:19;;;;;;;6.03;0.22;;;14.20;99.90;;;;;;5076221;28;20024;-77
2023/07/18 01:27:49;;;;;;;2.15;0.00;;;14.10;99.90;;;;;;5058356;28;20013;-76
2023/07/18 01:30:16;;;;;;;2.72;0.45;;;14.10;99.90;;;;;;5058562;28;20020;-76
2023/07/18 01:32:42;;;;;;;1.77;0.00;;;14.10;99.90;;;;;;5076846;28;20408;-76
2023/07/18 01:35:08;;;;;;;4.72;0.75;;;14.00;99.90;;;;;;5077208;28;20024;-77
2023/07/18 01:37:38;;;;;;;5.57;0.28;;;14.00;99.90;;;;;;5076219;28;20100;-76
2023/07/18 01:40:08;;;;;;;2.50;0.00;;;14.00;99.90;;;;;;5076111;28;20392;-77
2023/07/18 01:42:34;;;;;;;4.78;0.10;;;14.00;99.90;;;;;;5076960;28;20024;-76
2023/07/18 01:44:59;;;;;;;2.25;0.52;;;13.90;99.90;;;;;;5076074;28;20422;-77
2023/07/18 01:47:25;;;;;;;3.38;0.03;;;13.90;99.90;;;;;;5076673;28;20048;-77
2023/07/18 01:49:51;;;;;;;11.30;0.75;;;13.90;99.90;;;;;;5075674;28;20063;-77
2023/07/18 01:52:16;;;;;;;1.85;0.00;;;13.80;99.90;;;;;;5075975;28;20024;-77
2023/07/18 01:54:42;;;;;;;4.72;0.25;;;13.80;99.90;;;;;;5076083;28;20024;-76
2023/07/18 01:57:07;;;;;;;1.77;0.00;;;13.80;99.90;;;;;;5076027;28;20033;-77
2023/07/18 01:59:33;;;;;;;4.32;0.20;;;13.70;99.90;;;;;;5075901;28;20146;-77
2023/07/18 02:01:58;;;;;;;9.40;0.68;;;13.70;99.90;;;;;;5075814;28;20051;-77
2023/07/18 02:04:24;;;;;;;2.10;0.00;;;13.70;99.90;;;;;;5075686;28;20039;-77
2023/07/18 02:06:51;;;;;;;4.38;0.00;;;13.70;99.90;;;;;;5057754;28;20480;-77
2023/07/18 02:09:16;;;;;;;3.28;0.32;;;13.70;99.90;;;;;;5057679;28;20035;-77
2023/07/18 02:11:42;;;;;;;3.20;0.17;;;13.70;99.90;;;;;;5057753;28;20021;-77
2023/07/18 02:14:07;;;;;;;4.85;0.15;;;13.60;99.90;;;;;;5075583;28;20028;-76
2023/07/18 02:16:33;;;;;;;1.92;0.70;;;13.60;99.90;;;;;;5075527;28;20361;-77
2023/07/18 02:19:01;;;;;;;4.25;0.13;;;13.60;99.90;;;;;;5057495;28;20024;-77
2023/07/18 02:21:27;;;;;;;7.72;0.15;;;13.60;99.90;;;;;;5075475;28;20090;-77
2023/07/18 02:23:53;;;;;;;5.68;0.10;;;13.60;99.90;;;;;;5075700;28;20483;-76
2023/07/18 02:26:18;;;;;;;2.00;0.08;;;13.60;99.90;;;;;;5075230;28;20068;-77
2023/07/18 02:28:44;;;;;;;3.97;0.10;;;13.60;99.90;;;;;;5057350;28;20017;-76
2023/07/18 02:31:10;;;;;;;2.22;0.20;;;13.50;99.90;;;;;;5057163;28;20505;-74
2023/07/18 02:33:35;;;;;;;2.30;0.15;;;13.50;99.90;;;;;;5075120;28;20028;-75
2023/07/18 02:36:01;;;;;;;3.22;1.13;;;13.50;99.90;;;;;;5075192;28;20098;-74
2023/07/18 02:38:26;;;;;;;0.93;0.00;;;13.50;99.90;;;;;;5074997;28;20162;-75
2023/07/18 02:40:52;;;;;;;4.43;0.65;;;13.50;99.90;;;;;;5075543;28;20109;-75
2023/07/18 02:43:17;;;;;;;1.65;0.00;;;13.40;99.90;;;;;;5056846;28;20067;-75
2023/07/18 02:45:43;;;;;;;2.40;0.10;;;13.40;99.90;;;;;;5074874;28;20438;-75
2023/07/18 02:48:09;;;;;;;5.70;0.10;;;13.40;99.90;;;;;;5074761;28;20500;-75
2023/07/18 02:50:35;;;;;;;3.20;0.00;;;13.40;99.90;;;;;;5056871;28;20392;-75
2023/07/18 02:53:00;;;;;;;4.05;0.20;;;13.40;99.90;;;;;;5074701;28;20070;-75
2023/07/18 02:55:27;;;;;;;2.83;0.45;;;13.30;99.90;;;;;;5075203;28;20434;-75
2023/07/18 02:57:53;;;;;;;3.20;0.15;;;13.30;99.90;;;;;;5074641;28;20028;-75
2023/07/18 03:00:25;;;;;;;3.35;0.10;;;13.30;99.90;;;;;;5074817;28;20020;-75
2023/07/18 03:02:51;;;;;;;4.93;0.40;;;13.20;99.90;;;;;;5074307;28;20027;-75
2023/07/18 03:05:19;;;;;;;2.58;0.00;;;13.20;99.90;;;;;;5074463;28;20399;-75
2023/07/18 03:07:46;;;;;;;3.55;0.55;;;13.20;99.90;;;;;;5074365;28;20476;-74
2023/07/18 03:10:13;;;;;;;3.00;0.35;;;13.20;99.90;;;;;;5056438;28;20477;-74
2023/07/18 03:12:40;;;;;;;6.97;0.50;;;13.10;99.90;;;;;;5074275;28;20020;-74
2023/07/18 03:15:07;;;;;;;3.92;0.30;;;13.10;99.90;;;;;;5074484;28;20032;-74
2023/07/18 03:17:33;;;;;;;2.40;0.30;;;13.10;99.90;;;;;;5056264;28;20024;-74
2023/07/18 03:19:59;;;;;;;4.95;0.35;;;13.10;99.90;;;;;;5056259;28;20162;-75
2023/07/18 03:22:24;;;;;;;1.75;0.20;;;13.10;99.90;;;;;;5074131;28;20487;-75
2023/07/18 03:24:51;;;;;;;3.13;0.20;;;13.00;99.90;;;;;;5074319;28;20134;-74
2023/07/18 03:27:18;;;;;;;3.20;0.90;;;13.00;99.90;;;;;;5074381;28;20373;-74
2023/07/18 03:29:43;;;;;;;2.05;0.30;;;13.00;99.90;;;;;;5055982;28;20104;-75
2023/07/18 03:32:09;;;;;;;3.03;0.20;;;13.00;99.90;;;;;;5055954;28;20048;-74
2023/07/18 03:34:35;;;;;;;3.20;0.57;;;13.10;99.90;;;;;;5073819;28;20361;-74
2023/07/18 03:37:00;;;;;;;1.85;0.10;;;13.10;99.90;;;;;;5055942;28;20020;-75
2023/07/18 03:39:26;;;;;;;1.85;0.25;;;13.10;99.90;;;;;;5073760;28;20100;-75
2023/07/18 03:41:51;;;;;;;3.20;0.55;;;13.10;99.90;;;;;;5074279;28;20107;-75
2023/07/18 03:44:17;;;;;;;2.63;0.30;;;13.00;99.90;;;;;;5073672;28;20059;-75
2023/07/18 03:46:42;;;;;;;10.73;0.28;;;13.00;99.90;;;;;;5073616;28;20035;-75
2023/07/18 03:49:08;;;;;;;3.53;0.57;;;13.00;99.90;;;;;;5055602;28;20053;-75
2023/07/18 03:51:34;;;;;;;2.47;0.43;;;13.00;99.90;;;;;;5073696;28;20426;-75
2023/07/18 03:54:02;;;;;;;7.07;0.57;;;13.00;99.90;;;;;;5055657;28;20064;-75
2023/07/18 03:56:30;;;;;;;4.10;0.10;;;13.00;99.90;;;;;;5074066;28;20512;-75
2023/07/18 03:58:56;;;;;;;3.78;0.30;;;13.00;99.90;;;;;;5073518;28;20029;-75
2023/07/18 04:01:22;;;;;;;6.15;0.75;;;13.00;99.90;;;;;;5073496;28;20089;-75
2023/07/18 04:03:47;;;;;;;4.18;0.45;;;13.00;99.90;;;;;;5073557;28;20051;-75
2023/07/18 04:06:13;;;;;;;5.60;0.52;;;13.00;99.90;;;;;;5073985;28;20040;-75
2023/07/18 04:08:38;;;;;;;3.42;0.35;;;13.00;99.90;;;;;;5055268;28;20021;-75
2023/07/18 04:11:04;;;;;;;6.45;0.40;;;13.00;99.90;;;;;;5073859;28;20075;-78
2023/07/18 04:13:30;;;;;;;4.43;0.20;;;13.00;99.90;;;;;;5055817;28;20017;-77
2023/07/18 04:15:55;;;;;;;2.28;0.50;;;13.00;99.90;;;;;;5074064;28;20543;-77
2023/07/18 04:18:21;;;;;;;5.50;0.43;;;13.00;99.90;;;;;;5056134;28;20040;-78
2023/07/18 04:20:49;;;;;;;6.13;0.22;;;13.00;99.90;;;;;;5074221;28;20146;-78
2023/07/18 04:23:14;;;;;;;4.72;0.38;;;13.00;99.90;;;;;;5073928;28;20028;-77
2023/07/18 04:26:00;;;;;;;0.60;0.13;;;13.00;99.90;;;;;;5055687;28;20040;-78
2023/07/18 04:28:34;;;;;;;2.42;0.38;;;13.00;99.90;;;;;;5056151;28;20430;-77
2023/07/18 04:31:00;;;;;;;2.40;0.20;;;13.00;99.90;;;;;;5073820;28;20024;-77
2023/07/18 04:33:25;;;;;;;4.07;0.20;;;13.10;99.90;;;;;;5074108;28;20369;-78
2023/07/18 04:35:51;;;;;;;3.38;1.42;;;13.10;99.90;;;;;;5056935;28;20020;-78
2023/07/18 04:38:17;;;;;;;4.03;0.35;;;13.20;99.90;;;;;;5055958;28;20078;-78
2023/07/18 04:40:43;;;;;;;1.95;0.17;;;13.80;99.90;;;;;;5074100;28;20506;-78
2023/07/18 04:43:09;;;;;;;2.50;0.35;;;13.30;99.90;;;;;;5056103;28;20025;-77
2023/07/18 04:45:41;;;;;;;5.78;0.22;;;13.40;99.90;;;;;;5073917;28;20452;-78
2023/07/18 04:48:07;;;;;;;5.55;0.32;;;13.50;99.90;;;;;;5073980;28;20472;-78
2023/07/18 04:50:32;;;;;;;3.25;0.10;;;13.60;99.90;;;;;;5055843;28;20027;-78
2023/07/18 04:52:58;;;;;;;4.10;0.95;;;14.30;99.90;;;;;;5055621;28;20396;-78
2023/07/18 04:55:25;;;;;;;6.78;0.30;;;13.80;99.90;;;;;;5073902;28;20017;-78
2023/07/18 04:57:50;;;;;;;2.45;0.00;;;13.90;99.90;;;;;;5055909;28;20642;-78
2023/07/18 05:00:17;;;;;;;1.38;0.13;;;14.00;99.90;;;;;;5073775;28;20053;-77
2023/07/18 05:02:42;;;;;;;5.32;0.57;;;14.10;99.90;;;;;;5055666;28;20032;-78
2023/07/18 05:05:08;;;;;;;4.55;0.50;;;14.20;99.90;;;;;;5073539;28;20029;-77
2023/07/18 05:07:33;;;;;;;6.30;0.15;;;14.30;99.90;;;;;;5073722;28;20021;-78
2023/07/18 05:09:59;;;;;;;3.08;0.82;;;14.40;99.90;;;;;;5055643;28;20496;-76
2023/07/18 05:12:24;;;;;;;5.10;0.10;;;14.40;99.90;;;;;;5073497;28;20103;-78
2023/07/18 05:14:50;;;;;;;2.55;0.52;;;14.60;99.90;;;;;;5073452;28;20023;-78
2023/07/18 05:17:16;;;;;;;1.15;0.10;;;14.70;99.90;;;;;;5073696;28;20106;-78
2023/07/18 05:19:42;;;;;;;3.72;0.73;;;;;;;;;;5055790;28;20392;-76
2023/07/18 05:22:08;;;;;;;1.45;0.20;;;;;;;;;;5054699;28;20032;-74
2023/07/18 05:24:34;;;;;;;1.80;0.10;;;15.10;99.90;;;;;;5072739;28;20025;-74
2023/07/18 05:26:59;;;;;;;4.15;0.15;;;15.20;99.90;;;;;;5057962;28;20396;-74
2023/07/18 05:29:25;;;;;;;6.97;0.35;;;15.40;99.90;;;;;;5076213;28;20029;-74
2023/07/18 05:31:50;;;;;;;2.47;0.35;;;15.50;99.90;;;;;;5076391;28;20066;-75
2023/07/18 05:34:16;;;;;;;2.30;0.40;;;15.70;99.90;;;;;;5076226;28;20017;-75
2023/07/18 05:36:42;;;;;;;3.05;0.40;;;15.80;99.90;;;;;;5076095;28;20059;-75
2023/07/18 05:39:07;;;;;;;6.13;0.45;;;16.00;99.90;;;;;;5058234;28;20028;-75
2023/07/18 05:41:33;;;;;;;2.75;0.32;;;16.00;99.90;;;;;;5058282;28;20020;-74
2023/07/18 05:43:58;;;;;;;5.65;0.47;;;16.00;99.90;;;;;;5076033;28;20028;-74
2023/07/18 05:46:24;;;;;;;4.88;0.28;;;16.10;99.90;;;;;;5058246;28;20480;-75
2023/07/18 05:48:50;;;;;;;4.85;0.47;;;16.10;99.90;;;;;;5075941;28;20069;-75
2023/07/18 05:51:15;;;;;;;6.82;0.65;;;16.10;99.90;;;;;;5076664;28;20042;-74
2023/07/18 05:53:41;;;;;;;3.10;0.40;;;16.10;99.90;;;;;;5075984;28;20028;-74
2023/07/18 05:56:07;;;;;;;1.33;0.30;;;16.10;99.90;;;;;;5075886;28;20023;-73
2023/07/18 05:58:33;;;;;;;3.42;0.10;;;16.30;99.90;;;;;;5075891;28;20029;-75
2023/07/18 06:00:58;;;;;;;2.72;0.10;;;16.40;99.90;;;;;;5057850;28;20104;-74
2023/07/18 06:03:24;;;;;;;2.53;0.55;;;16.50;99.90;;;;;;5074767;28;20047;-73
2023/07/18 06:05:54;;;;;;;2.60;0.65;;;16.60;99.90;;;;;;5074648;28;20021;-75
2023/07/18 06:08:21;;;;;;;4.22;0.60;;;16.70;99.90;;;;;;5073473;28;20086;-73
2023/07/18 06:10:47;;;;;;;6.57;0.82;;;16.80;99.90;;;;;;5075606;28;20017;-75
2023/07/18 06:13:12;;;;;;;4.45;0.45;;;16.90;99.90;;;;;;5074274;28;20548;-74
2023/07/18 06:15:38;;;;;;;5.22;1.02;;;16.90;99.90;;;;;;5075475;28;20032;-74
2023/07/18 06:18:04;;;;;;;6.70;0.40;;;16.90;99.90;;;;;;5057458;28;20024;-75
2023/07/18 06:20:32;;;;;;;5.45;0.22;;;16.90;99.90;;;;;;5075494;28;20103;-75
2023/07/18 06:22:59;;;;;;;6.50;1.38;;;17.10;99.90;;;;;;5075815;28;20469;-75
2023/07/18 06:25:24;;;;;;;9.75;0.45;;;17.10;99.90;;;;;;5057260;28;20033;-76
2023/07/18 06:27:50;;;;;;;6.38;0.50;;;17.20;99.90;;;;;;5057203;28;20502;-75
2023/07/18 06:30:17;;;;;;;6.13;0.80;;;17.40;99.90;;;;;;5075817;28;20035;-75
2023/07/18 06:32:42;;;;;;;3.53;0.32;;;17.50;99.90;;;;;;5075269;28;20020;-75
2023/07/18 06:35:10;;;;;;;5.45;0.30;;;17.60;99.90;;;;;;5075171;28;20073;-73
2023/07/18 06:37:35;;;;;;;7.60;0.43;;;17.70;99.90;;;;;;5055947;28;20043;-75
2023/07/18 06:40:01;;;;;;;3.70;0.80;;;17.80;99.90;;;;;;5057080;28;20267;-73
2023/07/18 06:42:27;;;;;;;11.90;1.25;;;17.80;99.90;;;;;;5075047;28;20051;-75
2023/07/18 06:44:52;;;;;;;3.75;0.77;;;17.90;99.90;;;;;;5074783;28;20024;-73
2023/07/18 06:47:18;;;;;;;5.97;0.50;;;18.00;99.90;;;;;;5074974;28;20434;-73
2023/07/18 06:49:44;;;;;;;7.22;0.82;;;18.10;99.90;;;;;;5074697;28;20024;-73
2023/07/18 06:52:10;;;;;;;10.80;1.55;;;18.20;99.90;;;;;;5074657;28;20028;-72
2023/07/18 06:54:35;;;;;;;8.48;0.90;;;18.20;99.90;;;;;;5074632;28;20028;-72
2023/07/18 06:57:01;;;;;;;3.15;0.70;;;18.30;99.90;;;;;;5074654;28;20048;-71
2023/07/18 06:59:27;;;;;;;5.15;1.05;;;18.40;99.90;;;;;;5074680;28;20451;-72
2023/07/18 07:01:52;;;;;;;8.82;1.23;;;18.50;99.90;;;;;;5074574;28;20547;-72
2023/07/18 07:04:19;;;;;;;9.45;0.93;;;18.60;99.90;;;;;;5074583;28;20033;-72
2023/07/18 07:06:45;;;;;;;8.13;0.80;;;18.60;99.90;;;;;;5074700;28;20023;-72
2023/07/18 07:09:15;;;;;;;9.85;1.38;;;18.70;99.90;;;;;;5074503;28;20028;-72
2023/07/18 07:11:43;;;;;;;8.10;1.17;;;18.80;99.90;;;;;;5056605;28;20111;-72
2023/07/18 07:14:08;;;;;;;8.02;1.52;;;18.80;99.90;;;;;;5074439;28;20032;-72
2023/07/18 07:16:35;;;;;;;6.95;1.25;;;19.00;99.90;;;;;;5074237;28;20024;-73
2023/07/18 07:19:00;;;;;;;8.15;0.98;;;19.00;99.90;;;;;;5074194;28;20028;-72
2023/07/18 07:21:27;;;;;;;5.53;0.75;;;19.10;99.90;;;;;;5074116;28;20035;-72
2023/07/18 07:23:53;;;;;;;5.65;1.25;;;19.10;99.90;;;;;;5074486;28;20392;-72
2023/07/18 07:26:19;;;;;;;3.95;0.88;;;19.20;99.90;;;;;;5074192;28;20036;-72
2023/07/18 07:28:45;;;;;;;9.40;1.50;;;19.30;99.90;;;;;;5056113;28;20418;-72
2023/07/18 07:31:11;;;;;;;9.27;2.00;;;19.40;99.90;;;;;;5074017;28;20066;-72
2023/07/18 07:33:37;;;;;;;10.07;1.02;;;19.40;99.90;;;;;;5074021;28;20020;-72
2023/07/18 07:36:03;;;;;;;9.10;1.08;;;19.40;99.90;;;;;;5074519;28;20027;-72
2023/07/18 07:38:29;;;;;;;8.45;0.82;;;19.50;99.90;;;;;;5073930;28;20021;-72
2023/07/18 07:40:54;;;;;;;9.50;1.15;;;19.50;99.90;;;;;;5073909;28;20073;-73
2023/07/18 07:43:20;;;;;;;18.05;1.55;;;19.70;99.90;;;;;;5073724;28;20510;-72
2023/07/18 07:45:45;;;;;;;6.60;0.98;;;19.70;99.90;;;;;;5073780;28;20021;-72
2023/07/18 07:48:11;;;;;;;6.88;1.00;;;19.80;99.90;;;;;;5055349;28;20088;-73
2023/07/18 07:50:36;;;;;;;6.30;1.20;;;19.90;99.90;;;;;;5073822;28;20148;-72
2023/07/18 07:53:02;;;;;;;6.38;1.20;;;20.00;99.90;;;;;;5055627;28;20048;-72
2023/07/18 07:55:30;;;;;;;11.27;1.55;;;20.10;99.90;;;;;;5055693;28;20021;-72
2023/07/18 07:57:56;;;;;;;5.20;1.00;;;20.00;99.90;;;;;;5074058;28;20102;-72
2023/07/18 08:00:22;;;;;;;7.00;0.85;;;20.20;99.90;;;;;;5055722;28;20024;-72
2023/07/18 08:02:48;;;;;;;2.03;0.55;;;20.30;99.90;;;;;;5055677;28;20118;-72
2023/07/18 08:05:13;;;;;;;6.72;1.30;;;20.20;99.90;;;;;;5073424;28;20036;-73
2023/07/18 08:07:40;;;;;;;6.13;0.70;;;20.30;99.90;;;;;;5073403;28;20032;-73
2023/07/18 08:10:05;;;;;;;9.00;1.10;;;20.40;99.90;;;;;;5073398;28;20020;-73
2023/07/18 08:12:31;;;;;;;7.75;1.00;;;20.50;99.90;;;;;;5074007;28;20021;-72
2023/07/18 08:14:57;;;;;;;9.63;0.75;;;20.50;99.90;;;;;;5055361;28;20013;-71
2023/07/18 08:17:22;;;;;;;4.03;0.32;;;20.60;99.90;;;;;;5073281;28;20025;-73
2023/07/18 08:19:48;;;;;;;7.60;0.85;;;20.60;99.90;;;;;;5073329;28;20075;-73
2023/07/18 08:22:13;;;;;;;9.13;0.30;;;20.60;99.90;;;;;;5073325;28;20029;-72
2023/07/18 08:24:39;;;;;;;1.27;0.15;;;20.50;99.90;;;;;;5073344;28;20063;-72
2023/07/18 08:27:05;;;;;;;6.15;0.43;;;20.60;99.90;;;;;;5073299;28;20496;-72
2023/07/18 08:29:33;;;;;;;1.83;0.20;;;20.30;99.90;;;;;;5073251;28;20059;-71
2023/07/18 08:31:58;;;;;;;11.73;0.68;;;20.50;99.90;;;;;;5073672;28;20028;-72
2023/07/18 08:34:24;;;;;;;1.77;0.25;;;20.70;99.90;;;;;;5073103;28;20090;-72
2023/07/18 08:36:50;;;;;;;2.67;0.20;;;20.80;99.90;;;;;;5073641;28;20024;-72
2023/07/18 08:39:17;;;;;;;5.93;0.40;;;20.90;99.90;;;;;;5054982;28;20062;-72
2023/07/18 08:41:43;;;;;;;2.92;0.30;;;21.00;99.90;;;;;;5073696;28;20059;-72
2023/07/18 08:44:12;;;;;;;4.40;0.60;;;21.20;99.90;;;;;;5054984;28;20128;-72
2023/07/18 08:46:38;;;;;;;4.07;0.30;;;21.20;99.90;;;;;;5073134;28;20531;-72
2023/07/18 08:49:05;;;;;;;5.70;0.25;;;21.10;99.90;;;;;;5072924;28;20025;-73
2023/07/18 08:51:31;;;;;;;5.63;0.30;;;21.10;99.90;;;;;;5072900;28;20480;-73
2023/07/18 08:53:57;;;;;;;3.90;0.40;;;21.00;99.90;;;;;;5072892;28;20071;-72
2023/07/18 08:56:25;;;;;;;5.53;0.40;;;21.00;99.90;;;;;;5072938;28;20024;-72
2023/07/18 08:58:50;;;;;;;3.17;0.63;;;21.00;99.90;;;;;;5055088;28;20421;-72
2023/07/18 09:01:16;;;;;;;4.63;0.50;;;21.00;99.90;;;;;;5075057;28;20056;-72
2023/07/18 09:03:42;;;;;;;5.10;0.43;;;21.10;99.90;;;;;;5058887;28;20028;-72
2023/07/18 09:06:20;;;;;;;4.38;0.47;;;21.20;99.90;;;;;;5076843;28;20461;-72
2023/07/18 09:08:46;;;;;;;5.03;0.75;;;21.10;99.90;;;;;;5076694;28;20028;-73
2023/07/18 09:11:14;;;;;;;5.03;0.70;;;21.00;99.90;;;;;;5077381;28;20044;-72
2023/07/18 09:13:41;;;;;;;4.85;0.55;;;21.10;99.90;;;;;;5076590;28;20013;-72
2023/07/18 09:16:17;;;;;;;6.82;0.40;;;21.00;99.90;;;;;;5076753;28;20067;-72
2023/07/18 09:18:53;;;;;;;1.80;0.30;;;21.20;99.90;;;;;;5076667;28;20111;-72
2023/07/18 09:21:20;;;;;;;5.22;0.50;;;21.50;99.90;;;;;;5077107;28;20024;-73
2023/07/18 09:23:46;;;;;;;6.63;0.32;;;21.70;99.90;;;;;;5058489;28;20074;-73
2023/07/18 09:26:21;;;;;;;7.07;0.95;;;21.80;99.90;;;;;;5076333;28;20074;-73
2023/07/18 09:28:47;;;;;;;5.75;0.40;;;21.80;99.90;;;;;;5076415;28;20016;-72
2023/07/18 09:31:19;;;;;;;3.53;0.17;;;22.00;99.90;;;;;;5076356;28;20472;-73
2023/07/18 09:33:49;;;;;;;7.80;0.55;;;22.00;99.90;;;;;;5076350;28;20017;-73
2023/07/18 09:36:20;;;;;;;3.78;0.50;;;21.80;99.90;;;;;;5076320;28;20021;-72
2023/07/18 09:38:47;;;;;;;2.08;0.32;;;21.70;99.90;;;;;;5076209;28;20048;-72
2023/07/18 09:41:17;;;;;;;3.95;0.65;;;21.60;99.90;;;;;;5058211;28;20562;-73
2023/07/18 09:43:46;;;;;;;4.47;0.40;;;21.50;99.90;;;;;;5058188;28;20047;-72
2023/07/18 09:46:16;;;;;;;3.13;0.65;;;21.60;99.90;;;;;;5076101;28;20059;-73
2023/07/18 09:48:45;;;;;;;2.75;0.30;;;21.60;99.90;;;;;;5076582;28;20455;-72
2023/07/18 09:51:14;;;;;;;2.95;0.85;;;21.70;99.90;;;;;;5075953;28;20025;-72
2023/07/18 09:53:42;;;;;;;;;;;22.00;99.90;;;;;;5076222;28;20020;-71
2023/07/18 09:56:08;;;;;;;3.03;0.88;;;22.10;99.90;;;;;;5075952;28;20363;-72
2023/07/18 09:58:38;;;;;;;5.20;0.50;;;22.00;99.90;;;;;;5057767;28;20464;-73
2023/07/18 10:01:07;;;;;;;6.32;0.85;;;22.10;99.90;;;;;;5075788;28;20078;-73
2023/07/18 10:03:33;;;;;;;4.25;0.15;;;22.20;99.90;;;;;;5076317;28;20021;-73
2023/07/18 10:05:58;;;;;;;4.20;0.85;;;22.50;99.90;;;;;;5075755;28;20105;-73
2023/07/18 10:08:24;;;;;;;4.60;0.63;;;22.60;99.90;;;;;;5075646;28;20400;-73
2023/07/18 10:11:02;;;;;;;5.13;0.82;;;22.80;99.90;;;;;;5075532;28;20020;-72
2023/07/18 10:13:29;;;;;;;6.07;0.90;;;23.00;99.90;;;;;;5075718;28;20019;-72
2023/07/18 10:16:13;;;;;;;2.88;0.20;;;22.90;99.90;;;;;;5075681;28;20385;-77
2023/07/18 10:18:49;;;;;;;3.90;0.45;;;22.90;99.90;;;;;;5076402;28;20036;-76
2023/07/18 10:21:31;;;;;;;3.28;0.90;;;23.10;99.90;;;;;;5057615;28;20030;-75
2023/07/18 10:23:57;;;;;;;4.63;0.75;;;23.20;99.90;;;;;;5075270;28;20396;-76
2023/07/18 10:26:32;;;;;;;1.30;0.30;;;23.60;99.90;;;;;;5057540;28;20040;-76
2023/07/18 10:29:03;;;;;;;6.63;0.60;;;23.70;99.90;;;;;;5075405;28;20020;-75
2023/07/18 10:31:33;;;;;;;2.05;0.35;;;23.90;99.90;;;;;;5075469;28;20077;-75
2023/07/18 10:34:05;;;;;;;4.93;0.80;;;24.00;99.90;;;;;;5075523;28;20024;-75
2023/07/18 10:36:31;;;;;;;2.65;0.20;;;24.10;99.90;;;;;;5057276;28;20058;-76
2023/07/18 10:38:57;;;;;;;3.33;0.20;;;24.30;99.90;;;;;;5075090;28;20493;-75
2023/07/18 10:41:22;;;;;;;4.07;0.47;;;24.40;99.90;;;;;;5074846;28;20107;-75
2023/07/18 10:43:48;;;;;;;4.03;0.52;;;24.50;99.90;;;;;;5075021;28;20025;-76
2023/07/18 10:46:13;;;;;;;4.53;0.28;;;24.80;99.90;;;;;;5056962;28;20036;-76
2023/07/18 10:48:39;;;;;;;2.05;0.60;;;24.50;99.90;;;;;;5074830;28;20028;-77
2023/07/18 10:51:08;;;;;;;2.35;0.08;;;24.30;99.90;;;;;;5057069;28;20017;-76
2023/07/18 10:53:34;;;;;;;1.27;0.10;;;24.20;99.90;;;;;;5074954;28;20051;-75
2023/07/18 10:56:00;;;;;;;1.77;0.25;;;24.30;99.90;;;;;;5056866;28;20056;-75
2023/07/18 10:58:26;;;;;;;3.22;0.30;;;24.30;99.90;;;;;;5075064;28;20017;-75
2023/07/18 11:00:51;;;;;;;4.13;0.10;;;24.30;99.90;;;;;;5075125;28;20030;-76
2023/07/18 11:03:21;;;;;;;2.63;0.70;;;24.20;99.90;;;;;;5056729;28;20490;-75
2023/07/18 11:05:50;;;;;;;1.85;0.20;;;24.30;99.90;;;;;;5074468;28;20035;-75
2023/07/18 11:08:29;;;;;;;1.48;0.10;;;24.50;99.90;;;;;;5074458;28;20502;-75
2023/07/18 11:10:59;;;;;;;2.00;0.20;;;24.50;99.90;;;;;;5056637;28;20027;-75
2023/07/18 11:13:35;;;;;;;4.22;0.35;;;24.70;99.90;;;;;;5074244;28;20028;-76
2023/07/18 11:16:04;;;;;;;6.07;0.40;;;24.60;99.90;;;;;;5074309;28;20024;-75
2023/07/18 11:18:36;;;;;;;2.72;0.17;;;24.50;99.90;;;;;;5056316;28;20027;-75
2023/07/18 11:21:05;;;;;;;3.15;0.47;;;24.20;99.90;;;;;;5074325;28;20369;-75
2023/07/18 11:23:32;;;;;;;0.82;0.00;;;24.30;99.90;;;;;;5073537;28;20029;-75
2023/07/18 11:25:58;;;;;;;5.22;0.20;;;24.40;99.90;;;;;;5074147;28;20427;-75
2023/07/18 11:28:33;;;;;;;1.15;0.10;;;24.20;99.90;;;;;;5074162;28;20028;-75
2023/07/18 11:30:59;;;;;;;6.88;0.20;;;23.80;99.90;;;;;;5072880;28;20380;-75
2023/07/18 11:33:31;;;;;;;3.55;0.10;;;23.70;99.90;;;;;;5056324;28;20077;-75
2023/07/18 11:35:57;;;;;;;4.38;0.47;;;23.50;99.90;;;;;;5056047;28;20027;-75
2023/07/18 11:38:28;;;;;;;2.17;0.38;;;23.50;99.90;;;;;;5073897;28;20024;-75
2023/07/18 11:40:53;;;;;;;1.42;0.10;;;23.80;99.90;;;;;;5056011;28;20027;-75
2023/07/18 11:43:19;;;;;;;2.92;0.20;;;24.40;98.40;;;;;;5055941;28;20396;-76
2023/07/18 11:45:46;;;;;;;2.35;0.32;;;25.00;97.10;;;;;;5074265;28;20039;-76
2023/07/18 11:48:15;;;;;;;1.98;0.15;;;25.40;96.80;;;;;;5055842;28;20020;-75
2023/07/18 11:50:44;;;;;;;7.60;0.45;;;25.90;94.40;;;;;;5073643;28;20047;-75
2023/07/18 11:53:10;;;;;;;3.33;0.17;;;26.10;96.40;;;;;;5055816;28;20024;-75
2023/07/18 11:55:36;;;;;;;0.90;0.22;;;25.90;94.90;;;;;;5055687;28;20399;-75
2023/07/18 11:58:07;;;;;;;9.32;0.30;;;25.60;95.30;;;;;;5073589;28;20024;-76
2023/07/18 12:00:35;;;;;;;2.72;0.32;;;25.30;96.80;;;;;;5055770;28;20031;-76
2023/07/18 12:03:01;;;;;;;1.40;0.03;;;25.50;95.20;;;;;;5074007;28;20017;-75
2023/07/18 12:05:26;;;;;;;3.88;0.00;;;25.50;95.60;;;;;;5073483;28;20081;-76
2023/07/18 12:07:52;;;;;;;2.03;0.05;;;25.50;97.10;;;;;;5073479;28;20048;-76
2023/07/18 12:10:18;;;;;;;1.88;0.13;;;25.50;97.30;;;;;;5055453;28;20029;-76
2023/07/18 12:12:44;;;;;;;3.40;0.05;;;25.90;95.60;;;;;;5073369;28;20518;-75
2023/07/18 12:15:10;;;;;;;2.72;0.10;;;26.10;95.40;;;;;;5073267;28;20024;-75
2023/07/18 12:17:38;;;;;;;3.40;0.00;;;26.50;94.40;;;;;;5073340;28;20154;-74
2023/07/18 12:20:04;;;;;;;1.55;0.25;;;26.90;93.90;;;;;;5055486;28;20048;-75
2023/07/18 12:22:31;;;;;;;4.72;0.47;;;27.50;93.60;;;;;;5055315;28;20041;-76
2023/07/18 12:24:56;;;;;;;0.80;0.00;;;27.80;92.50;;;;;;5073159;28;20036;-75
2023/07/18 12:27:22;;;;;;;2.00;0.00;;;27.80;91.50;;;;;;5073233;28;20388;-75
2023/07/18 12:29:48;;;;;;;0.88;0.10;;;27.80;82.70;;;;;;5073247;28;20020;-75
2023/07/18 12:32:14;;;;;;;3.65;0.17;;;27.30;88.20;;;;;;5073346;28;20020;-76
2023/07/18 12:34:40;;;;;;;2.35;0.20;;;27.00;90.20;;;;;;5073204;28;20082;-76
2023/07/18 12:37:06;;;;;;;0.60;0.10;;;27.00;88.50;;;;;;5073208;28;20016;-75
2023/07/18 12:39:32;;;;;;;0.47;0.00;;;26.90;90.50;;;;;;5073230;28;20108;-77
2023/07/18 12:41:58;;;;;;;3.53;0.00;;;27.00;91.50;;;;;;5055436;28;20056;-76
2023/07/18 12:44:38;;;;;;;2.08;0.00;;;27.30;92.90;;;;;;5073285;28;20035;-75
2023/07/18 12:47:04;;;;;;;2.08;0.17;;;27.50;92.00;;;;;;5073831;28;20111;-73